DAL2322 KRDU-KATL
Flight info
| Callsign | DAL2322 |
|---|---|
| Flight time | 1h 6m |
| Altitude | 34000 |
| Route | SHPRD4 SHPRD LEAVI OZZZI2 |
| Aircraft | B753/M-SDE3FGHIM3RWXY/LB1 |
Departure
| Time | 2026-05-07 02:20 |
|---|---|
| Airport | Raleigh-Durham International Airport (KRDU) |
Arrival
| Time | 2026-05-07 03:26 |
|---|---|
| Airport | Hartsfield Jackson Atlanta International Airport (KATL) |
| Time | Latitude | Longitude | Altitude | Speed | Heading |
|---|---|---|---|---|---|
| 2026-05-07 01:52 | 35.87990 | -78.79115 | 397 ft | 0 kts | 223° |
| 2026-05-07 02:08 | 35.87991 | -78.79115 | 397 ft | 1 kts | 223° |
| 2026-05-07 02:08 | 35.88001 | -78.79103 | 397 ft | 2 kts | 223° |
| 2026-05-07 02:08 | 35.88012 | -78.79090 | 398 ft | 2 kts | 224° |
| 2026-05-07 02:08 | 35.88021 | -78.79076 | 398 ft | 2 kts | 253° |
| 2026-05-07 02:09 | 35.88022 | -78.79058 | 399 ft | 2 kts | 283° |
| 2026-05-07 02:09 | 35.88016 | -78.79043 | 399 ft | 0 kts | 310° |
| 2026-05-07 02:09 | 35.88012 | -78.79037 | 400 ft | 1 kts | 315° |
| 2026-05-07 02:09 | 35.88011 | -78.79036 | 400 ft | 0 kts | 314° |
| 2026-05-07 02:11 | 35.88011 | -78.79037 | 400 ft | 0 kts | 314° |
| 2026-05-07 02:12 | 35.88032 | -78.79063 | 398 ft | 7 kts | 314° |
| 2026-05-07 02:12 | 35.88083 | -78.79092 | 396 ft | 8 kts | 8° |
| 2026-05-07 02:12 | 35.88129 | -78.79057 | 397 ft | 6 kts | 44° |
| 2026-05-07 02:13 | 35.88161 | -78.79018 | 397 ft | 6 kts | 45° |
| 2026-05-07 02:13 | 35.88206 | -78.78963 | 399 ft | 11 kts | 45° |
| 2026-05-07 02:13 | 35.88269 | -78.78884 | 402 ft | 14 kts | 46° |
| 2026-05-07 02:13 | 35.88338 | -78.78798 | 402 ft | 13 kts | 45° |
| 2026-05-07 02:14 | 35.88403 | -78.78719 | 404 ft | 12 kts | 45° |
| 2026-05-07 02:14 | 35.88461 | -78.78648 | 406 ft | 10 kts | 45° |
| 2026-05-07 02:14 | 35.88521 | -78.78573 | 405 ft | 15 kts | 45° |
| 2026-05-07 02:14 | 35.88601 | -78.78472 | 404 ft | 17 kts | 45° |
| 2026-05-07 02:15 | 35.88686 | -78.78365 | 403 ft | 17 kts | 45° |
| 2026-05-07 02:15 | 35.88777 | -78.78254 | 401 ft | 18 kts | 43° |
| 2026-05-07 02:15 | 35.88869 | -78.78143 | 401 ft | 18 kts | 45° |
| 2026-05-07 02:15 | 35.88959 | -78.78029 | 402 ft | 18 kts | 47° |
| 2026-05-07 02:16 | 35.89010 | -78.77906 | 403 ft | 15 kts | 62° |
| 2026-05-07 02:16 | 35.89069 | -78.77814 | 404 ft | 13 kts | 46° |
| 2026-05-07 02:16 | 35.89129 | -78.77739 | 406 ft | 12 kts | 44° |
| 2026-05-07 02:16 | 35.89184 | -78.77673 | 407 ft | 10 kts | 39° |
| 2026-05-07 02:17 | 35.89243 | -78.77662 | 406 ft | 8 kts | 330° |
| 2026-05-07 02:17 | 35.89285 | -78.77708 | 405 ft | 8 kts | 314° |
| 2026-05-07 02:17 | 35.89294 | -78.77719 | 405 ft | 0 kts | 314° |
| 2026-05-07 02:18 | 35.89296 | -78.77721 | 405 ft | 2 kts | 314° |
| 2026-05-07 02:18 | 35.89321 | -78.77754 | 405 ft | 8 kts | 314° |
| 2026-05-07 02:18 | 35.89345 | -78.77843 | 404 ft | 14 kts | 240° |
| 2026-05-07 02:18 | 35.89323 | -78.77876 | 403 ft | 7 kts | 226° |
| 2026-05-07 02:19 | 35.89160 | -78.78078 | 398 ft | 62 kts | 225° |
| 2026-05-07 02:19 | 35.88714 | -78.78627 | 397 ft | 116 kts | 225° |
| 2026-05-07 02:19 | 35.88025 | -78.79477 | 393 ft | 161 kts | 224° |
| 2026-05-07 02:19 | 35.87224 | -78.80476 | 839 ft | 167 kts | 225° |
| 2026-05-07 02:20 | 35.86411 | -78.81387 | 1640 ft | 155 kts | 223° |
| 2026-05-07 02:20 | 35.85667 | -78.82351 | 2139 ft | 164 kts | 231° |
| 2026-05-07 02:20 | 35.84940 | -78.83584 | 2447 ft | 188 kts | 235° |
| 2026-05-07 02:20 | 35.84105 | -78.84937 | 2760 ft | 210 kts | 232° |
| 2026-05-07 02:21 | 35.83096 | -78.86391 | 2784 ft | 246 kts | 232° |
| 2026-05-07 02:21 | 35.81909 | -78.88106 | 3193 ft | 269 kts | 226° |
| 2026-05-07 02:21 | 35.80589 | -78.89608 | 4666 ft | 258 kts | 225° |
| 2026-05-07 02:21 | 35.79306 | -78.91011 | 5943 ft | 251 kts | 225° |
| 2026-05-07 02:22 | 35.78174 | -78.92640 | 6796 ft | 254 kts | 248° |
| 2026-05-07 02:22 | 35.77859 | -78.94724 | 7834 ft | 254 kts | 275° |
| 2026-05-07 02:22 | 35.78443 | -78.96787 | 8675 ft | 267 kts | 299° |
| 2026-05-07 02:22 | 35.79390 | -78.98702 | 9678 ft | 265 kts | 292° |
| 2026-05-07 02:23 | 35.80054 | -79.00794 | 10534 ft | 268 kts | 284° |
| 2026-05-07 02:23 | 35.80554 | -79.03075 | 11037 ft | 286 kts | 280° |
| 2026-05-07 02:23 | 35.80961 | -79.05553 | 11439 ft | 305 kts | 278° |
| 2026-05-07 02:23 | 35.81316 | -79.08163 | 11919 ft | 316 kts | 277° |
| 2026-05-07 02:24 | 35.81641 | -79.10880 | 11977 ft | 318 kts | 276° |
| 2026-05-07 02:24 | 35.81931 | -79.13512 | 11965 ft | 311 kts | 276° |
| 2026-05-07 02:24 | 35.82205 | -79.16164 | 11985 ft | 313 kts | 275° |
| 2026-05-07 02:24 | 35.82472 | -79.18831 | 11961 ft | 310 kts | 275° |
| 2026-05-07 02:25 | 35.82729 | -79.21471 | 11969 ft | 314 kts | 275° |
| 2026-05-07 02:25 | 35.82984 | -79.24139 | 11968 ft | 313 kts | 275° |
| 2026-05-07 02:25 | 35.83237 | -79.26794 | 11964 ft | 310 kts | 275° |
| 2026-05-07 02:25 | 35.83468 | -79.29436 | 11966 ft | 310 kts | 270° |
| 2026-05-07 02:26 | 35.83360 | -79.32079 | 11974 ft | 310 kts | 264° |
| 2026-05-07 02:26 | 35.83168 | -79.34716 | 11972 ft | 308 kts | 264° |
| 2026-05-07 02:26 | 35.82977 | -79.37354 | 11975 ft | 311 kts | 264° |
| 2026-05-07 02:26 | 35.82781 | -79.39997 | 11967 ft | 309 kts | 264° |
| 2026-05-07 02:27 | 35.82585 | -79.42625 | 11975 ft | 310 kts | 264° |
| 2026-05-07 02:27 | 35.82384 | -79.45292 | 12306 ft | 320 kts | 264° |
| 2026-05-07 02:27 | 35.82182 | -79.47947 | 13552 ft | 309 kts | 265° |
| 2026-05-07 02:27 | 35.81981 | -79.50581 | 14149 ft | 317 kts | 265° |
| 2026-05-07 02:28 | 35.81761 | -79.53275 | 15018 ft | 317 kts | 262° |
| 2026-05-07 02:28 | 35.81334 | -79.55942 | 15769 ft | 319 kts | 260° |
| 2026-05-07 02:28 | 35.80886 | -79.58579 | 16553 ft | 320 kts | 261° |
| 2026-05-07 02:28 | 35.80438 | -79.61250 | 17319 ft | 322 kts | 261° |
| 2026-05-07 02:29 | 35.79978 | -79.63959 | 18002 ft | 326 kts | 261° |
| 2026-05-07 02:29 | 35.79514 | -79.66695 | 18659 ft | 331 kts | 261° |
| 2026-05-07 02:29 | 35.79039 | -79.69496 | 19167 ft | 338 kts | 259° |
| 2026-05-07 02:29 | 35.78554 | -79.72338 | 19849 ft | 339 kts | 259° |
| 2026-05-07 02:30 | 35.78070 | -79.75175 | 20357 ft | 345 kts | 260° |
| 2026-05-07 02:30 | 35.77574 | -79.78068 | 21004 ft | 346 kts | 259° |
| 2026-05-07 02:30 | 35.77073 | -79.80994 | 21398 ft | 355 kts | 259° |
| 2026-05-07 02:30 | 35.76567 | -79.83942 | 21974 ft | 358 kts | 259° |
| 2026-05-07 02:31 | 35.76051 | -79.86935 | 22456 ft | 363 kts | 259° |
| 2026-05-07 02:31 | 35.75519 | -79.90023 | 23007 ft | 367 kts | 259° |
| 2026-05-07 02:31 | 35.74995 | -79.93054 | 23679 ft | 367 kts | 259° |
| 2026-05-07 02:31 | 35.74472 | -79.96081 | 24496 ft | 366 kts | 259° |
| 2026-05-07 02:32 | 35.73939 | -79.99162 | 25056 ft | 369 kts | 259° |
| 2026-05-07 02:32 | 35.73408 | -80.02228 | 25928 ft | 365 kts | 259° |
| 2026-05-07 02:32 | 35.72875 | -80.05292 | 26336 ft | 371 kts | 258° |
| 2026-05-07 02:32 | 35.72335 | -80.08390 | 27081 ft | 368 kts | 258° |
| 2026-05-07 02:33 | 35.71806 | -80.11427 | 27582 ft | 372 kts | 259° |
| 2026-05-07 02:33 | 35.71253 | -80.14591 | 27987 ft | 377 kts | 258° |
| 2026-05-07 02:33 | 35.70712 | -80.17696 | 28692 ft | 374 kts | 258° |
| 2026-05-07 02:33 | 35.70167 | -80.20810 | 29173 ft | 376 kts | 258° |
| 2026-05-07 02:34 | 35.69609 | -80.23984 | 29564 ft | 381 kts | 259° |
| 2026-05-07 02:34 | 35.69048 | -80.27183 | 30168 ft | 379 kts | 258° |
| 2026-05-07 02:34 | 35.68863 | -80.28239 | 30274 ft | 381 kts | 258° |
| 2026-05-07 02:35 | 35.67408 | -80.36489 | 31652 ft | 378 kts | 258° |
| 2026-05-07 02:35 | 35.66856 | -80.39605 | 32314 ft | 373 kts | 258° |
| 2026-05-07 02:35 | 35.66306 | -80.42722 | 32779 ft | 373 kts | 259° |
| 2026-05-07 02:35 | 35.65741 | -80.45879 | 33068 ft | 376 kts | 258° |
| 2026-05-07 02:36 | 35.64943 | -80.48859 | 33921 ft | 366 kts | 251° |
| 2026-05-07 02:36 | 35.63981 | -80.51766 | 33926 ft | 367 kts | 251° |
| 2026-05-07 02:36 | 35.62071 | -80.57533 | 33942 ft | 365 kts | 251° |
| 2026-05-07 02:37 | 35.60138 | -80.63292 | 33964 ft | 362 kts | 250° |
| 2026-05-07 02:37 | 35.58222 | -80.68962 | 33973 ft | 363 kts | 251° |
| 2026-05-07 02:38 | 35.56284 | -80.74689 | 33962 ft | 364 kts | 251° |
| 2026-05-07 02:38 | 35.54348 | -80.80389 | 33981 ft | 363 kts | 250° |
| 2026-05-07 02:39 | 35.52381 | -80.86160 | 33968 ft | 367 kts | 251° |
| 2026-05-07 02:39 | 35.50426 | -80.91885 | 33967 ft | 365 kts | 250° |
| 2026-05-07 02:40 | 35.48457 | -80.97647 | 33977 ft | 364 kts | 250° |
| 2026-05-07 02:40 | 35.46488 | -81.03395 | 33970 ft | 371 kts | 251° |
| 2026-05-07 02:41 | 35.44482 | -81.09238 | 33970 ft | 372 kts | 250° |
| 2026-05-07 02:41 | 35.42491 | -81.15029 | 33960 ft | 368 kts | 251° |
| 2026-05-07 02:42 | 35.40489 | -81.20836 | 33952 ft | 374 kts | 250° |
| 2026-05-07 02:42 | 35.38484 | -81.26638 | 33956 ft | 373 kts | 250° |
| 2026-05-07 02:43 | 35.36462 | -81.32494 | 33943 ft | 372 kts | 250° |
| 2026-05-07 02:43 | 35.34454 | -81.38285 | 33941 ft | 372 kts | 250° |
| 2026-05-07 02:44 | 35.32415 | -81.44166 | 33944 ft | 379 kts | 250° |
| 2026-05-07 02:44 | 35.30352 | -81.50095 | 33932 ft | 375 kts | 251° |
| 2026-05-07 02:45 | 35.28308 | -81.55950 | 33937 ft | 373 kts | 251° |
| 2026-05-07 02:45 | 35.26283 | -81.61758 | 33951 ft | 377 kts | 250° |
| 2026-05-07 02:46 | 35.24225 | -81.67635 | 33954 ft | 376 kts | 250° |
| 2026-05-07 02:46 | 35.22152 | -81.73557 | 33960 ft | 384 kts | 250° |
| 2026-05-07 02:47 | 35.20060 | -81.79516 | 33951 ft | 380 kts | 249° |
| 2026-05-07 02:47 | 35.17986 | -81.85416 | 33947 ft | 379 kts | 249° |
| 2026-05-07 02:48 | 35.15898 | -81.91336 | 33943 ft | 382 kts | 249° |
| 2026-05-07 02:48 | 35.13790 | -81.97301 | 33965 ft | 382 kts | 249° |
| 2026-05-07 02:49 | 35.11699 | -82.03207 | 33962 ft | 378 kts | 250° |
| 2026-05-07 02:49 | 35.09606 | -82.09114 | 33966 ft | 383 kts | 250° |
| 2026-05-07 02:50 | 35.07470 | -82.15139 | 33962 ft | 386 kts | 249° |
| 2026-05-07 02:50 | 35.05373 | -82.21024 | 33967 ft | 375 kts | 249° |
| 2026-05-07 02:51 | 35.02827 | -82.26636 | 33976 ft | 391 kts | 237° |
| 2026-05-07 02:51 | 34.99450 | -82.31968 | 33967 ft | 404 kts | 238° |
| 2026-05-07 02:52 | 34.96091 | -82.37551 | 33972 ft | 413 kts | 238° |
| 2026-05-07 02:52 | 34.92719 | -82.43253 | 33956 ft | 416 kts | 239° |
| 2026-05-07 02:53 | 34.89354 | -82.49004 | 33322 ft | 420 kts | 239° |
| 2026-05-07 02:53 | 34.87675 | -82.51868 | 32853 ft | 416 kts | 238° |
| 2026-05-07 02:53 | 34.85990 | -82.54752 | 32386 ft | 421 kts | 238° |
| 2026-05-07 02:54 | 34.84281 | -82.57677 | 31908 ft | 427 kts | 239° |
| 2026-05-07 02:54 | 34.82566 | -82.60601 | 31399 ft | 414 kts | 239° |
| 2026-05-07 02:54 | 34.80946 | -82.63367 | 30914 ft | 400 kts | 239° |
| 2026-05-07 02:54 | 34.79371 | -82.66065 | 30479 ft | 389 kts | 237° |
| 2026-05-07 02:55 | 34.77963 | -82.68467 | 30101 ft | 387 kts | 238° |
| 2026-05-07 02:55 | 34.76414 | -82.71113 | 29684 ft | 394 kts | 238° |
| 2026-05-07 02:55 | 34.74817 | -82.73841 | 29268 ft | 394 kts | 238° |
| 2026-05-07 02:55 | 34.73245 | -82.76518 | 28848 ft | 390 kts | 238° |
| 2026-05-07 02:56 | 34.71650 | -82.79242 | 28442 ft | 407 kts | 238° |
| 2026-05-07 02:56 | 34.69972 | -82.82101 | 27987 ft | 417 kts | 238° |
| 2026-05-07 02:56 | 34.68312 | -82.84920 | 27502 ft | 409 kts | 238° |
| 2026-05-07 02:56 | 34.66678 | -82.87692 | 27035 ft | 402 kts | 239° |
| 2026-05-07 02:57 | 34.65057 | -82.90440 | 26582 ft | 401 kts | 238° |
| 2026-05-07 02:57 | 34.63438 | -82.93191 | 26125 ft | 400 kts | 238° |
| 2026-05-07 02:57 | 34.61827 | -82.95920 | 25664 ft | 397 kts | 238° |
| 2026-05-07 02:57 | 34.60231 | -82.98622 | 25203 ft | 393 kts | 239° |
| 2026-05-07 02:58 | 34.58647 | -83.01305 | 24760 ft | 394 kts | 239° |
| 2026-05-07 02:58 | 34.57048 | -83.04013 | 24295 ft | 389 kts | 239° |
| 2026-05-07 02:58 | 34.55493 | -83.06641 | 23862 ft | 389 kts | 239° |
| 2026-05-07 02:58 | 34.53928 | -83.09282 | 23411 ft | 387 kts | 239° |
| 2026-05-07 02:59 | 34.52349 | -83.11951 | 22963 ft | 385 kts | 239° |
| 2026-05-07 02:59 | 34.50791 | -83.14580 | 22519 ft | 385 kts | 239° |
| 2026-05-07 02:59 | 34.49237 | -83.17194 | 22085 ft | 384 kts | 239° |
| 2026-05-07 02:59 | 34.47693 | -83.19797 | 21654 ft | 378 kts | 239° |
| 2026-05-07 03:00 | 34.46159 | -83.22378 | 21215 ft | 375 kts | 239° |
| 2026-05-07 03:00 | 34.44630 | -83.24947 | 20785 ft | 377 kts | 240° |
| 2026-05-07 03:00 | 34.43080 | -83.27563 | 20362 ft | 396 kts | 240° |
| 2026-05-07 03:00 | 34.41442 | -83.30322 | 19940 ft | 412 kts | 239° |
| 2026-05-07 03:01 | 34.39792 | -83.33073 | 19903 ft | 387 kts | 239° |
| 2026-05-07 03:01 | 34.38259 | -83.35641 | 19791 ft | 370 kts | 240° |
| 2026-05-07 03:01 | 34.36785 | -83.38103 | 19714 ft | 353 kts | 239° |
| 2026-05-07 03:01 | 34.35372 | -83.40467 | 19660 ft | 335 kts | 239° |
| 2026-05-07 03:02 | 34.34037 | -83.42705 | 19526 ft | 322 kts | 240° |
| 2026-05-07 03:02 | 34.32747 | -83.44868 | 18978 ft | 322 kts | 239° |
| 2026-05-07 03:02 | 34.31437 | -83.47057 | 18526 ft | 317 kts | 241° |
| 2026-05-07 03:02 | 34.30152 | -83.49197 | 17825 ft | 316 kts | 240° |
| 2026-05-07 03:03 | 34.28888 | -83.51315 | 17228 ft | 303 kts | 240° |
| 2026-05-07 03:03 | 34.27679 | -83.53334 | 16908 ft | 298 kts | 239° |
| 2026-05-07 03:03 | 34.26438 | -83.55411 | 16565 ft | 309 kts | 238° |
| 2026-05-07 03:03 | 34.25175 | -83.57521 | 16200 ft | 308 kts | 238° |
| 2026-05-07 03:04 | 34.23929 | -83.59590 | 15861 ft | 305 kts | 238° |
| 2026-05-07 03:04 | 34.22685 | -83.61662 | 15522 ft | 305 kts | 238° |
| 2026-05-07 03:04 | 34.21840 | -83.63067 | 15307 ft | 308 kts | 238° |
| 2026-05-07 03:05 | 34.19017 | -83.67757 | 14788 ft | 287 kts | 237° |
| 2026-05-07 03:05 | 34.17842 | -83.69705 | 14390 ft | 284 kts | 238° |
| 2026-05-07 03:05 | 34.16688 | -83.71631 | 14017 ft | 281 kts | 236° |
| 2026-05-07 03:05 | 34.15557 | -83.73504 | 13670 ft | 277 kts | 235° |
| 2026-05-07 03:06 | 34.14439 | -83.75355 | 13343 ft | 273 kts | 238° |
| 2026-05-07 03:06 | 34.13335 | -83.77186 | 13039 ft | 269 kts | 238° |
| 2026-05-07 03:06 | 34.12238 | -83.78999 | 12689 ft | 261 kts | 237° |
| 2026-05-07 03:06 | 34.11201 | -83.80718 | 12380 ft | 254 kts | 237° |
| 2026-05-07 03:07 | 34.10179 | -83.82412 | 12126 ft | 258 kts | 237° |
| 2026-05-07 03:07 | 34.08950 | -83.84061 | 11793 ft | 268 kts | 226° |
| 2026-05-07 03:07 | 34.07586 | -83.85519 | 11547 ft | 262 kts | 225° |
| 2026-05-07 03:07 | 34.06237 | -83.86985 | 11306 ft | 257 kts | 226° |
| 2026-05-07 03:08 | 34.04908 | -83.88420 | 11073 ft | 255 kts | 225° |
| 2026-05-07 03:08 | 34.03596 | -83.89834 | 10870 ft | 259 kts | 226° |
| 2026-05-07 03:08 | 34.02449 | -83.91065 | 10625 ft | 258 kts | 226° |
| 2026-05-07 03:08 | 34.01358 | -83.92235 | 10295 ft | 253 kts | 226° |
| 2026-05-07 03:09 | 33.99559 | -83.94164 | 10110 ft | 242 kts | 226° |
| 2026-05-07 03:09 | 33.98269 | -83.95544 | 9917 ft | 251 kts | 224° |
| 2026-05-07 03:09 | 33.96738 | -83.96587 | 9516 ft | 264 kts | 204° |
| 2026-05-07 03:09 | 33.94961 | -83.96778 | 9198 ft | 268 kts | 186° |
| 2026-05-07 03:10 | 33.93077 | -83.96663 | 8955 ft | 264 kts | 186° |
| 2026-05-07 03:10 | 33.91284 | -83.96580 | 8916 ft | 259 kts | 186° |
| 2026-05-07 03:10 | 33.89483 | -83.96510 | 8855 ft | 269 kts | 186° |
| 2026-05-07 03:10 | 33.87616 | -83.96425 | 8767 ft | 263 kts | 186° |
| 2026-05-07 03:11 | 33.85816 | -83.96344 | 8688 ft | 254 kts | 187° |
| 2026-05-07 03:11 | 33.84029 | -83.96271 | 8623 ft | 259 kts | 187° |
| 2026-05-07 03:11 | 33.82205 | -83.96199 | 8573 ft | 262 kts | 186° |
| 2026-05-07 03:11 | 33.80413 | -83.96282 | 8496 ft | 250 kts | 202° |
| 2026-05-07 03:12 | 33.78847 | -83.97073 | 8518 ft | 242 kts | 214° |
| 2026-05-07 03:12 | 33.77425 | -83.98014 | 8406 ft | 226 kts | 214° |
| 2026-05-07 03:12 | 33.76075 | -83.98906 | 8378 ft | 220 kts | 214° |
| 2026-05-07 03:12 | 33.74718 | -83.99818 | 8377 ft | 224 kts | 214° |
| 2026-05-07 03:13 | 33.73321 | -84.00747 | 8310 ft | 230 kts | 214° |
| 2026-05-07 03:13 | 33.71931 | -84.01676 | 8327 ft | 227 kts | 214° |
| 2026-05-07 03:13 | 33.70547 | -84.02608 | 8338 ft | 233 kts | 214° |
| 2026-05-07 03:13 | 33.69112 | -84.03562 | 8004 ft | 239 kts | 213° |
| 2026-05-07 03:14 | 33.67645 | -84.04551 | 7301 ft | 244 kts | 214° |
| 2026-05-07 03:14 | 33.66180 | -84.05544 | 6633 ft | 241 kts | 214° |
| 2026-05-07 03:14 | 33.63334 | -84.07535 | 5283 ft | 236 kts | 214° |
| 2026-05-07 03:15 | 33.61924 | -84.08539 | 4562 ft | 235 kts | 214° |
| 2026-05-07 03:15 | 33.60621 | -84.09478 | 4708 ft | 209 kts | 214° |
| 2026-05-07 03:15 | 33.59301 | -84.10423 | 4788 ft | 233 kts | 214° |
| 2026-05-07 03:15 | 33.57904 | -84.11398 | 4770 ft | 232 kts | 208° |
| 2026-05-07 03:16 | 33.56387 | -84.12068 | 4771 ft | 237 kts | 192° |
| 2026-05-07 03:16 | 33.54704 | -84.11868 | 4807 ft | 256 kts | 163° |
| 2026-05-07 03:16 | 33.53215 | -84.10610 | 4811 ft | 270 kts | 134° |
| 2026-05-07 03:16 | 33.52386 | -84.08598 | 4798 ft | 275 kts | 104° |
| 2026-05-07 03:17 | 33.52417 | -84.06303 | 4789 ft | 283 kts | 78° |
| 2026-05-07 03:17 | 33.53305 | -84.04167 | 4812 ft | 289 kts | 47° |
| 2026-05-07 03:17 | 33.54886 | -84.02747 | 4818 ft | 283 kts | 17° |
| 2026-05-07 03:17 | 33.56794 | -84.02291 | 4798 ft | 278 kts | 356° |
| 2026-05-07 03:18 | 33.58707 | -84.02301 | 4763 ft | 273 kts | 345° |
| 2026-05-07 03:18 | 33.60420 | -84.03034 | 4798 ft | 250 kts | 313° |
| 2026-05-07 03:18 | 33.61675 | -84.04416 | 4782 ft | 239 kts | 304° |
| 2026-05-07 03:18 | 33.62767 | -84.05788 | 4739 ft | 212 kts | 304° |
| 2026-05-07 03:19 | 33.63770 | -84.07026 | 4765 ft | 210 kts | 305° |
| 2026-05-07 03:19 | 33.64666 | -84.08412 | 4790 ft | 202 kts | 279° |
| 2026-05-07 03:19 | 33.64818 | -84.09978 | 4804 ft | 181 kts | 264° |
| 2026-05-07 03:19 | 33.64844 | -84.11407 | 4767 ft | 163 kts | 264° |
| 2026-05-07 03:20 | 33.64869 | -84.12736 | 4794 ft | 159 kts | 265° |
| 2026-05-07 03:20 | 33.64883 | -84.14099 | 4770 ft | 165 kts | 265° |
| 2026-05-07 03:20 | 33.64898 | -84.15488 | 4778 ft | 168 kts | 265° |
| 2026-05-07 03:20 | 33.64904 | -84.16982 | 4745 ft | 198 kts | 266° |
| 2026-05-07 03:21 | 33.64913 | -84.18710 | 4517 ft | 207 kts | 266° |
| 2026-05-07 03:21 | 33.64927 | -84.20393 | 4266 ft | 203 kts | 265° |
| 2026-05-07 03:21 | 33.64934 | -84.22070 | 4003 ft | 200 kts | 266° |
| 2026-05-07 03:21 | 33.64939 | -84.23748 | 3743 ft | 198 kts | 265° |
| 2026-05-07 03:22 | 33.64941 | -84.25398 | 3489 ft | 197 kts | 266° |
| 2026-05-07 03:22 | 33.64944 | -84.27027 | 3222 ft | 191 kts | 264° |
| 2026-05-07 03:22 | 33.64949 | -84.28532 | 2957 ft | 174 kts | 266° |
| 2026-05-07 03:22 | 33.64951 | -84.29955 | 2729 ft | 171 kts | 265° |
| 2026-05-07 03:23 | 33.64952 | -84.31370 | 2535 ft | 161 kts | 266° |
| 2026-05-07 03:23 | 33.64957 | -84.32634 | 2359 ft | 144 kts | 265° |
| 2026-05-07 03:23 | 33.64959 | -84.33747 | 2166 ft | 127 kts | 264° |
| 2026-05-07 03:23 | 33.64959 | -84.34769 | 1972 ft | 120 kts | 263° |
| 2026-05-07 03:24 | 33.64953 | -84.35816 | 1851 ft | 134 kts | 264° |
| 2026-05-07 03:24 | 33.64950 | -84.36925 | 1693 ft | 136 kts | 267° |
| 2026-05-07 03:24 | 33.64957 | -84.38056 | 1453 ft | 133 kts | 266° |
| 2026-05-07 03:24 | 33.64956 | -84.39139 | 1259 ft | 130 kts | 268° |
| 2026-05-07 03:25 | 33.64952 | -84.40227 | 1118 ft | 133 kts | 269° |
| 2026-05-07 03:25 | 33.64956 | -84.41327 | 998 ft | 134 kts | 269° |
| 2026-05-07 03:25 | 33.64959 | -84.42356 | 988 ft | 113 kts | 267° |
| 2026-05-07 03:25 | 33.64950 | -84.43122 | 1003 ft | 73 kts | 268° |
| 2026-05-07 03:26 | 33.64945 | -84.43655 | 1013 ft | 47 kts | 271° |
| 2026-05-07 03:26 | 33.64922 | -84.43872 | 1017 ft | 16 kts | 211° |
| 2026-05-07 03:26 | 33.64821 | -84.43864 | 1019 ft | 13 kts | 151° |
| 2026-05-07 03:26 | 33.64787 | -84.43838 | 1019 ft | 1 kts | 154° |
| 2026-05-07 03:27 | 33.64783 | -84.43836 | 1019 ft | 1 kts | 155° |
| 2026-05-07 03:27 | 33.64761 | -84.43827 | 1019 ft | 2 kts | 168° |
| 2026-05-07 03:27 | 33.64729 | -84.43820 | 1018 ft | 5 kts | 173° |
| 2026-05-07 03:27 | 33.64667 | -84.43815 | 1018 ft | 12 kts | 181° |
| 2026-05-07 03:28 | 33.64575 | -84.43823 | 1018 ft | 13 kts | 185° |
| 2026-05-07 03:28 | 33.64480 | -84.43819 | 1018 ft | 13 kts | 165° |
| 2026-05-07 03:28 | 33.64391 | -84.43787 | 1018 ft | 12 kts | 176° |
| 2026-05-07 03:28 | 33.64301 | -84.43787 | 1018 ft | 12 kts | 181° |
| 2026-05-07 03:29 | 33.64210 | -84.43789 | 1018 ft | 13 kts | 181° |
| 2026-05-07 03:29 | 33.64118 | -84.43790 | 1018 ft | 13 kts | 178° |
| 2026-05-07 03:29 | 33.64046 | -84.43787 | 1016 ft | 7 kts | 185° |
| 2026-05-07 03:29 | 33.64018 | -84.43810 | 1016 ft | 3 kts | 249° |
| 2026-05-07 03:30 | 33.64014 | -84.43840 | 1016 ft | 3 kts | 266° |
| 2026-05-07 03:30 | 33.64014 | -84.43859 | 1016 ft | 0 kts | 272° |
| 2026-05-07 03:30 | 33.64014 | -84.43861 | 1016 ft | 0 kts | 273° |
| 2026-05-07 03:30 | 33.64014 | -84.43862 | 1016 ft | 0 kts | 273° |